Time;durP1;ratioP1;P1;durP2;ratioP2;P2;SDS_P1;SDS_P2;PMS_P1;PMS_P2;Temp;Humidity;BMP_temperature;BMP_pressure;BME280_temperature;BME280_humidity;BME280_pressure;Samples;Min_cycle;Max_cycle;Signal;HPM_P1;HPM_P2
2022/04/29 00:02:12;;;;;;;9.80;4.27;;;12.60;60.60;;;;;;7376476;19;20420;-49
2022/04/29 00:04:45;;;;;;;7.57;4.70;;;12.40;61.50;;;;;;7382949;19;20411;-48
2022/04/29 00:07:19;;;;;;;5.07;4.50;;;12.30;62.10;;;;;;7381050;19;20391;-47
2022/04/29 00:09:53;;;;;;;5.30;4.40;;;12.40;60.80;;;;;;7383865;19;20411;-48
2022/04/29 00:12:25;;;;;;;6.20;4.47;;;12.20;60.00;;;;;;7379473;19;20372;-48
2022/04/29 00:14:55;;;;;;;7.50;4.33;;;12.30;60.40;;;;;;7379455;19;20404;-48
2022/04/29 00:17:25;;;;;;;5.27;4.10;;;12.40;60.10;;;;;;7372900;19;20380;-49
2022/04/29 00:19:54;;;;;;;4.97;4.47;;;12.40;60.40;;;;;;7380508;19;20408;-49
2022/04/29 00:22:28;;;;;;;4.37;3.97;;;12.20;61.30;;;;;;7379204;19;20825;-49
2022/04/29 00:25:00;;;;;;;5.63;4.57;;;12.10;62.10;;;;;;7375061;19;20415;-48
2022/04/29 00:27:30;;;;;;;6.30;4.60;;;12.10;62.10;;;;;;7382572;19;20412;-48
2022/04/29 00:29:59;;;;;;;5.73;5.20;;;12.10;62.70;;;;;;7378378;19;20392;-47
2022/04/29 00:32:31;;;;;;;4.37;4.07;;;12.10;63.60;;;;;;7377680;19;20788;-48
2022/04/29 00:35:03;;;;;;;5.50;4.93;;;12.00;63.60;;;;;;7380046;19;20507;-48
2022/04/29 00:37:45;;;;;;;5.17;4.67;;;12.00;64.20;;;;;;7380705;19;20423;-49
2022/04/29 00:40:17;;;;;;;5.20;4.70;;;11.90;64.10;;;;;;7380360;19;20419;-47
2022/04/29 00:42:48;;;;;;;8.40;4.67;;;11.90;64.50;;;;;;7375918;19;20954;-48
2022/04/29 00:45:22;;;;;;;6.23;5.00;;;11.90;64.10;;;;;;7376055;19;20372;-48
2022/04/29 00:47:55;;;;;;;6.30;5.03;;;12.00;63.00;;;;;;7373109;19;20418;-48
2022/04/29 00:50:28;;;;;;;7.63;5.33;;;11.80;64.20;;;;;;7380102;19;20724;-47
2022/04/29 00:53:02;;;;;;;5.17;4.10;;;11.80;65.20;;;;;;7377221;19;20462;-48
2022/04/29 00:55:33;;;;;;;5.00;4.43;;;11.80;65.40;;;;;;7380081;19;20368;-48
2022/04/29 00:58:08;;;;;;;5.50;4.87;;;11.90;64.40;;;;;;7379188;19;20408;-48
2022/04/29 01:00:40;;;;;;;5.83;4.87;;;11.80;64.90;;;;;;7377049;19;20408;-48
2022/04/29 01:03:14;;;;;;;5.97;4.70;;;11.80;65.00;;;;;;7379567;19;20395;-48
2022/04/29 01:05:45;;;;;;;5.90;5.37;;;11.60;65.70;;;;;;7378559;19;20806;-47
2022/04/29 01:08:17;;;;;;;5.97;5.37;;;11.60;66.60;;;;;;7378680;19;20408;-49
2022/04/29 01:10:52;;;;;;;5.40;4.57;;;11.60;65.50;;;;;;7379293;19;20797;-48
2022/04/29 01:13:22;;;;;;;6.00;5.30;;;11.60;66.20;;;;;;7376701;19;20953;-48
2022/04/29 01:15:57;;;;;;;7.33;5.17;;;11.70;65.80;;;;;;7378345;19;20949;-48
2022/04/29 01:18:30;;;;;;;6.53;5.30;;;11.80;65.40;;;;;;7375625;19;20428;-49
2022/04/29 01:21:04;;;;;;;5.10;4.60;;;11.80;64.50;;;;;;7378076;19;20432;-48
2022/04/29 01:23:38;;;;;;;6.70;5.07;;;12.00;64.70;;;;;;7377287;19;20432;-48
2022/04/29 01:26:14;;;;;;;6.40;4.60;;;11.90;64.10;;;;;;7380612;19;20403;-47
2022/04/29 01:28:47;;;;;;;7.70;5.20;;;11.90;64.10;;;;;;7378538;19;20371;-49
2022/04/29 01:31:27;;;;;;;6.03;5.43;;;11.70;65.00;;;;;;7373103;19;20372;-40
2022/04/29 01:34:00;;;;;;;5.27;4.70;;;11.80;65.90;;;;;;7378733;19;21032;-40
2022/04/29 01:36:29;;;;;;;5.33;4.83;;;11.80;64.60;;;;;;7378512;19;21149;-40
2022/04/29 01:39:02;;;;;;;7.37;4.70;;;11.80;65.40;;;;;;7378451;19;20424;-40
2022/04/29 01:41:32;;;;;;;6.10;5.03;;;11.60;66.60;;;;;;7375918;19;20424;-40
2022/04/29 01:44:03;;;;;;;7.57;5.53;;;11.60;65.60;;;;;;7377006;19;20404;-40
2022/04/29 01:46:35;;;;;;;5.67;5.17;;;11.70;65.00;;;;;;7375769;19;20415;-40
2022/04/29 01:49:27;;;;;;;5.33;4.80;;;11.70;65.50;;;;;;7376585;19;20392;-40
2022/04/29 01:51:59;;;;;;;7.03;5.33;;;11.60;64.70;;;;;;7377729;19;20411;-40
2022/04/29 01:54:34;;;;;;;6.00;4.83;;;11.50;66.40;;;;;;7376223;19;20910;-40
2022/04/29 01:57:07;;;;;;;8.33;5.53;;;11.40;67.00;;;;;;7376670;19;20380;-40
2022/04/29 01:59:38;;;;;;;6.73;4.70;;;11.40;67.00;;;;;;7376282;19;20728;-48
2022/04/29 02:02:13;;;;;;;6.03;5.27;;;11.40;67.40;;;;;;7374984;19;20429;-48
2022/04/29 02:04:45;;;;;;;5.80;5.20;;;11.20;66.60;;;;;;7376150;19;20376;-48
2022/04/29 02:07:18;;;;;;;5.87;5.07;;;11.20;67.50;;;;;;7375420;19;20927;-48
2022/04/29 02:09:56;;;;;;;7.20;5.20;;;11.30;67.10;;;;;;7376731;19;21309;-48
2022/04/29 02:12:26;;;;;;;6.50;5.60;;;11.30;66.60;;;;;;7375152;19;20390;-48
2022/04/29 02:15:01;;;;;;;5.60;5.00;;;11.30;66.70;;;;;;7375486;19;20395;-48
2022/04/29 02:17:45;;;;;;;4.73;4.30;;;11.20;67.30;;;;;;7372284;19;20424;-48
2022/04/29 02:20:14;;;;;;;6.10;5.50;;;11.20;68.20;;;;;;7375749;19;20388;-48
2022/04/29 02:22:44;;;;;;;5.57;4.93;;;11.10;67.60;;;;;;7373934;19;20966;-47
2022/04/29 02:25:16;;;;;;;5.20;4.67;;;11.10;67.50;;;;;;7377466;19;20373;-48
2022/04/29 02:27:49;;;;;;;8.00;5.30;;;11.20;68.00;;;;;;7374939;19;20368;-48
2022/04/29 02:30:18;;;;;;;9.37;5.90;;;11.00;68.70;;;;;;7371759;19;20380;-48
2022/04/29 02:32:48;;;;;;;6.47;5.53;;;10.90;68.40;;;;;;7375203;19;20412;-48
2022/04/29 02:35:20;;;;;;;6.10;5.13;;;10.80;69.20;;;;;;7375786;19;20736;-48
2022/04/29 02:37:51;;;;;;;7.77;5.77;;;10.80;69.70;;;;;;7378358;19;20380;-48
2022/04/29 02:40:26;;;;;;;7.73;5.90;;;10.70;69.80;;;;;;7373122;19;20376;-49
2022/04/29 02:42:58;;;;;;;8.03;5.43;;;10.70;70.50;;;;;;7375768;19;20372;-48
2022/04/29 02:45:28;;;;;;;10.00;5.90;;;10.70;70.30;;;;;;7373114;19;20394;-48
2022/04/29 02:47:59;;;;;;;7.43;6.07;;;10.70;70.30;;;;;;7373009;19;20380;-48
2022/04/29 02:50:30;;;;;;;6.33;5.60;;;10.70;69.70;;;;;;7375178;19;20364;-48
2022/04/29 02:53:04;;;;;;;6.50;5.30;;;10.80;69.80;;;;;;7375149;19;20768;-48
2022/04/29 02:55:36;;;;;;;7.90;6.00;;;10.80;69.50;;;;;;7375578;19;20399;-48
2022/04/29 02:58:11;;;;;;;8.30;6.10;;;10.90;69.60;;;;;;7374913;19;20396;-48
2022/04/29 03:00:41;;;;;;;6.30;5.70;;;10.80;70.60;;;;;;7373321;19;20142;-48
2022/04/29 03:03:14;;;;;;;10.40;5.97;;;10.80;70.60;;;;;;7373464;19;20427;-48
2022/04/29 03:05:44;;;;;;;6.70;5.53;;;10.70;69.30;;;;;;7375078;19;20433;-48
2022/04/29 03:08:14;;;;;;;6.07;5.47;;;10.50;70.10;;;;;;7376673;19;21309;-48
2022/04/29 03:10:47;;;;;;;8.07;6.00;;;10.40;71.20;;;;;;7371934;19;20941;-48
2022/04/29 03:13:17;;;;;;;9.17;5.70;;;10.40;71.80;;;;;;7375780;19;20517;-47
2022/04/29 03:15:53;;;;;;;9.30;6.57;;;10.30;72.10;;;;;;7373363;19;20368;-48
2022/04/29 03:18:26;;;;;;;8.45;6.55;;;10.30;71.20;;;;;;7372005;19;20445;-48
2022/04/29 03:20:58;;;;;;;7.13;6.23;;;10.50;71.70;;;;;;7373910;19;20128;-48
2022/04/29 03:23:29;;;;;;;8.07;6.67;;;10.60;70.30;;;;;;7371351;19;20432;-49
2022/04/29 03:26:03;;;;;;;7.78;5.30;;;10.60;70.20;;;;;;7374826;19;21300;-48
2022/04/29 03:28:33;;;;;;;7.47;6.37;;;10.60;71.20;;;;;;7379651;19;20621;-48
2022/04/29 03:31:04;;;;;;;6.40;5.70;;;10.60;71.00;;;;;;7380198;19;20665;-48
2022/04/29 03:33:53;;;;;;;6.83;6.10;;;10.60;71.60;;;;;;7377382;19;21166;-49
2022/04/29 03:36:23;;;;;;;6.97;5.50;;;10.50;71.20;;;;;;7379822;19;20372;-48
2022/04/29 03:38:57;;;;;;;6.10;5.50;;;10.30;71.20;;;;;;7381420;19;20376;-48
2022/04/29 03:41:34;;;;;;;5.70;5.10;;;10.40;71.10;;;;;;7383474;19;20379;-48
2022/04/29 03:44:10;;;;;;;7.67;6.57;;;10.40;71.80;;;;;;7375597;19;20909;-49
2022/04/29 03:46:43;;;;;;;8.37;6.60;;;10.50;71.90;;;;;;7381124;19;20881;-48
2022/04/29 03:49:40;;;;;;;8.33;5.73;;;10.50;71.90;;;;;;7383658;19;20415;-48
2022/04/29 03:52:21;;;;;;;7.03;6.20;;;10.50;71.70;;;;;;7382255;19;21364;-48
2022/04/29 03:54:53;;;;;;;6.32;5.57;;;10.70;71.50;;;;;;7377371;19;20420;-48
2022/04/29 03:57:28;;;;;;;7.18;6.20;;;10.60;71.30;;;;;;7377228;19;20215;-48
2022/04/29 03:59:58;;;;;;;7.50;6.70;;;10.50;71.60;;;;;;7378074;19;20406;-48
2022/04/29 04:02:32;;;;;;;6.60;5.90;;;10.50;72.30;;;;;;7379829;19;20738;-49
2022/04/29 04:05:04;;;;;;;6.93;6.20;;;10.30;73.10;;;;;;7381252;19;20954;-48
2022/04/29 04:07:37;;;;;;;8.80;6.73;;;10.40;73.40;;;;;;7378530;19;20130;-48
2022/04/29 04:10:25;;;;;;;10.93;6.57;;;10.40;72.90;;;;;;7380872;19;20929;-48
2022/04/29 04:13:00;;;;;;;6.60;6.00;;;10.30;73.80;;;;;;7380945;19;20391;-48
2022/04/29 04:15:49;;;;;;;6.30;5.30;;;10.30;73.80;;;;;;7380377;19;20183;-48
2022/04/29 04:18:19;;;;;;;7.17;6.20;;;10.50;73.90;;;;;;7378088;19;20416;-48
2022/04/29 04:20:50;;;;;;;10.17;7.20;;;10.60;72.20;;;;;;7381268;19;20416;-48
2022/04/29 04:23:25;;;;;;;11.53;7.00;;;10.70;72.00;;;;;;7377053;19;20417;-48
2022/04/29 04:25:56;;;;;;;7.47;6.60;;;10.50;72.80;;;;;;7377979;19;20925;-48
2022/04/29 04:28:30;;;;;;;6.23;5.63;;;10.40;73.20;;;;;;7376776;19;20401;-48
2022/04/29 04:31:03;;;;;;;7.60;6.60;;;10.40;72.70;;;;;;7375071;19;20404;-47
2022/04/29 04:33:52;;;;;;;7.70;6.28;;;10.40;73.30;;;;;;7377051;19;20377;-48
2022/04/29 04:36:23;;;;;;;8.80;7.20;;;10.30;73.90;;;;;;7375895;19;20135;-48
2022/04/29 04:38:52;;;;;;;7.78;6.65;;;10.30;74.80;;;;;;7375660;19;20724;-48
2022/04/29 04:41:22;;;;;;;7.73;6.93;;;10.40;74.10;;;;;;7376547;19;20127;-48
2022/04/29 04:43:54;;;;;;;6.90;6.20;;;10.40;73.70;;;;;;7375959;19;20379;-49
2022/04/29 04:46:25;;;;;;;8.83;6.37;;;10.70;73.60;;;;;;7372159;19;20721;-48
2022/04/29 04:49:13;;;;;;;9.47;7.13;;;10.80;73.40;;;;;;7377257;19;20993;-48
2022/04/29 04:51:59;;;;;;;9.17;6.97;;;10.70;73.40;;;;;;7377409;19;20896;-49
2022/04/29 04:54:29;;;;;;;11.30;7.17;;;10.80;73.30;;;;;;7376841;19;21189;-48
2022/04/29 04:56:58;;;;;;;9.03;7.43;;;10.80;72.20;;;;;;7375474;19;20479;-48
2022/04/29 04:59:31;;;;;;;8.03;7.23;;;10.90;72.20;;;;;;7371066;19;20408;-48
2022/04/29 05:02:02;;;;;;;10.20;7.60;;;10.80;71.90;;;;;;7377168;19;20447;-48
2022/04/29 05:04:52;;;;;;;10.30;7.60;;;10.70;73.60;;;;;;7377111;19;20388;-48
2022/04/29 05:07:40;;;;;;;9.10;6.70;;;10.80;72.70;;;;;;7377072;19;20372;-48
2022/04/29 05:10:13;;;;;;;9.60;6.83;;;10.80;72.60;;;;;;7373938;19;20747;-48
2022/04/29 05:12:44;;;;;;;8.60;7.27;;;11.00;72.40;;;;;;7376708;19;20375;-48
2022/04/29 05:15:48;;;;;;;7.70;6.90;;;11.20;72.20;;;;;;7375851;19;20392;-48
2022/04/29 05:18:27;;;;;;;8.77;7.53;;;11.30;71.60;;;;;;7373054;19;20543;-49
2022/04/29 05:21:07;;;;;;;9.77;7.70;;;11.30;71.30;;;;;;7376510;19;20411;-49
2022/04/29 05:23:38;;;;;;;8.20;7.17;;;11.40;70.60;;;;;;7232521;19;2818773;-48
2022/04/29 05:26:43;;;;;;;15.93;8.53;;;11.50;70.60;;;;;;7377810;19;20412;-48
2022/04/29 05:29:31;;;;;;;9.07;7.77;;;11.60;69.40;;;;;;7376868;19;20732;-49
2022/04/29 05:32:22;;;;;;;10.03;7.80;;;11.60;69.40;;;;;;7377985;19;20376;-49
2022/04/29 05:35:27;;;;;;;11.27;7.13;;;11.70;70.40;;;;;;7375867;19;20431;-48
2022/04/29 05:44:02;;;;;;;10.93;7.70;;;11.80;68.40;;;;;;7374238;19;20858;-47
2022/04/29 05:46:31;;;;;;;9.07;7.53;;;11.90;68.80;;;;;;7380209;19;20922;-49
2022/04/29 05:49:06;;;;;;;13.27;8.43;;;11.90;68.90;;;;;;7376583;19;20420;-47
2022/04/29 05:51:41;;;;;;;9.23;7.00;;;11.90;68.80;;;;;;7377016;19;20952;-49
2022/04/29 05:54:11;;;;;;;12.07;8.37;;;12.00;68.60;;;;;;7376819;19;20404;-49
2022/04/29 05:56:43;;;;;;;10.10;8.20;;;12.10;67.80;;;;;;7378193;19;20380;-47
2022/04/29 05:59:19;;;;;;;9.93;8.27;;;12.10;67.50;;;;;;7374945;19;20416;-48
2022/04/29 06:02:26;;;;;;;9.80;8.80;;;12.00;67.40;;;;;;7372758;19;20408;-47
2022/04/29 06:05:11;;;;;;;9.63;8.20;;;12.00;68.10;;;;;;7377417;19;20807;-48
2022/04/29 06:07:43;;;;;;;8.93;8.00;;;12.10;68.00;;;;;;7374990;19;20383;-48
2022/04/29 06:10:19;;;;;;;12.40;9.40;;;12.40;67.70;;;;;;7376732;19;20408;-48
2022/04/29 06:12:49;;;;;;;9.23;7.90;;;12.70;67.10;;;;;;7378022;19;20380;-48
2022/04/29 06:15:28;;;;;;;11.40;8.40;;;13.00;65.90;;;;;;7376543;19;20383;-49
2022/04/29 06:18:12;;;;;;;9.50;8.30;;;13.30;64.30;;;;;;7375592;19;20874;-48
2022/04/29 06:20:50;;;;;;;10.60;8.97;;;13.40;61.40;;;;;;7378540;19;20633;-48
2022/04/29 06:23:23;;;;;;;8.23;7.43;;;13.60;59.70;;;;;;7376309;19;20435;-50
2022/04/29 06:25:54;;;;;;;12.30;8.03;;;13.80;59.90;;;;;;7374497;19;20418;-48
2022/04/29 06:28:24;;;;;;;9.57;8.43;;;14.00;59.90;;;;;;7376390;19;21033;-48
2022/04/29 06:30:53;;;;;;;11.80;9.30;;;14.10;60.00;;;;;;7375652;19;20372;-48
2022/04/29 06:33:38;;;;;;;13.30;9.00;;;14.20;60.10;;;;;;7377921;19;20418;-48
2022/04/29 06:36:14;;;;;;;18.67;11.50;;;14.30;60.20;;;;;;7375420;19;20424;-48
2022/04/29 06:38:46;;;;;;;14.27;9.20;;;14.40;59.70;;;;;;7377689;19;20420;-48
2022/04/29 06:41:35;;;;;;;13.43;10.20;;;14.50;59.60;;;;;;7377337;19;20975;-48
2022/04/29 06:44:09;;;;;;;19.17;10.50;;;14.60;59.80;;;;;;7373440;19;20447;-48
2022/04/29 06:46:50;;;;;;;14.43;9.97;;;14.80;58.50;;;;;;7376286;19;20817;-48
2022/04/29 06:49:39;;;;;;;12.83;10.40;;;15.00;57.80;;;;;;7375227;19;20974;-48
2022/04/29 06:52:30;;;;;;;14.20;10.10;;;15.20;57.10;;;;;;7378116;19;20376;-47
2022/04/29 06:55:10;;;;;;;12.80;10.97;;;15.40;56.90;;;;;;7375076;19;20867;-48
2022/04/29 06:57:42;;;;;;;13.07;10.03;;;15.60;56.60;;;;;;7378500;19;20433;-50
2022/04/29 07:00:13;;;;;;;14.10;10.73;;;15.90;56.10;;;;;;7372894;19;20416;-48
2022/04/29 07:02:43;;;;;;;12.27;10.53;;;16.00;55.70;;;;;;7376716;19;20769;-48
2022/04/29 07:05:15;;;;;;;13.50;10.30;;;16.20;55.20;;;;;;7373213;19;20416;-48
2022/04/29 07:07:52;;;;;;;12.00;10.43;;;16.40;54.60;;;;;;7374967;19;20404;-49
2022/04/29 07:11:00;;;;;;;12.17;9.47;;;16.60;54.00;;;;;;7376536;19;21061;-48
2022/04/29 07:13:51;;;;;;;12.67;10.30;;;16.70;53.70;;;;;;7375086;19;20376;-49
2022/04/29 07:16:22;;;;;;;9.77;8.77;;;16.90;52.80;;;;;;7372986;19;21159;-49
2022/04/29 07:18:54;;;;;;;11.27;10.07;;;17.00;52.30;;;;;;7373915;19;20449;-47
2022/04/29 07:21:24;;;;;;;10.37;9.27;;;17.00;52.00;;;;;;7373017;19;20824;-48
2022/04/29 07:23:56;;;;;;;17.73;9.97;;;17.00;51.50;;;;;;7369896;19;20931;-49
2022/04/29 07:26:32;;;;;;;12.27;9.03;;;17.00;51.30;;;;;;7375467;19;20371;-47
2022/04/29 07:29:02;;;;;;;14.50;12.43;;;17.00;51.10;;;;;;7375044;19;20364;-49
2022/04/29 07:31:38;;;;;;;18.83;11.10;;;17.00;51.70;;;;;;7370970;19;20379;-47
2022/04/29 07:43:00;;;;;;;12.13;9.40;;;16.80;51.70;;;;;;7374525;19;20368;-49
2022/04/29 07:45:31;;;;;;;13.13;10.27;;;16.80;51.30;;;;;;7370705;19;20388;-48
2022/04/29 07:48:22;;;;;;;17.60;9.53;;;17.00;51.80;;;;;;7375653;19;20394;-47
2022/04/29 07:50:54;;;;;;;14.73;9.40;;;17.30;51.30;;;;;;7373020;19;20401;-48
2022/04/29 07:53:24;;;;;;;17.47;8.80;;;17.60;50.30;;;;;;7373803;19;20372;-47
2022/04/29 07:55:56;;;;;;;11.03;8.60;;;17.90;50.30;;;;;;7373363;19;20507;-48
2022/04/29 07:58:26;;;;;;;11.17;9.03;;;18.20;49.80;;;;;;7373427;19;20405;-48
2022/04/29 08:00:57;;;;;;;11.00;9.13;;;18.20;49.40;;;;;;7372534;19;20419;-47
2022/04/29 08:03:27;;;;;;;9.57;8.67;;;18.30;48.70;;;;;;7374223;19;20736;-49
2022/04/29 08:06:05;;;;;;;17.83;10.07;;;18.30;49.20;;;;;;7373748;19;20391;-47
2022/04/29 08:08:38;;;;;;;14.10;10.00;;;18.40;48.80;;;;;;7374227;19;20380;-49
2022/04/29 08:11:11;;;;;;;18.43;9.57;;;18.50;48.10;;;;;;7374427;19;20409;-48
2022/04/29 08:14:01;;;;;;;12.60;9.00;;;18.50;48.20;;;;;;7379397;19;21286;-47
2022/04/29 08:17:06;;;;;;;15.10;9.83;;;18.40;48.20;;;;;;7380010;19;20391;-47
2022/04/29 08:19:48;;;;;;;12.60;9.00;;;18.40;48.30;;;;;;7376650;19;20431;-47
2022/04/29 08:22:35;;;;;;;10.23;9.17;;;18.50;48.60;;;;;;7379408;19;20839;-48
2022/04/29 08:25:09;;;;;;;13.50;10.73;;;18.60;48.10;;;;;;7381275;19;20380;-47
2022/04/29 08:27:41;;;;;;;11.70;8.60;;;18.80;47.40;;;;;;7380356;19;20383;-48
2022/04/29 08:30:11;;;;;;;15.17;11.03;;;19.10;47.30;;;;;;7376043;19;20921;-48
2022/04/29 08:32:44;;;;;;;11.93;9.23;;;19.40;46.20;;;;;;7380022;19;20368;-48
2022/04/29 08:35:28;;;;;;;15.00;9.67;;;19.70;45.60;;;;;;7377326;19;20380;-47
2022/04/29 08:37:57;;;;;;;12.00;10.40;;;20.20;44.10;;;;;;7381081;19;20907;-48
2022/04/29 08:40:32;;;;;;;13.37;9.80;;;20.50;41.60;;;;;;7379647;19;20736;-49
2022/04/29 08:43:06;;;;;;;14.87;9.30;;;20.90;41.90;;;;;;7380012;19;20934;-48
2022/04/29 08:45:39;;;;;;;13.03;9.40;;;21.40;40.80;;;;;;7373561;19;20383;-48
2022/04/29 08:48:31;;;;;;;12.57;10.13;;;21.60;40.20;;;;;;7380095;19;20372;-50
2022/04/29 08:51:01;;;;;;;11.43;8.83;;;22.00;39.20;;;;;;7381516;19;20908;-48
2022/04/29 08:53:34;;;;;;;9.37;8.37;;;22.40;37.90;;;;;;7380891;19;20373;-48
2022/04/29 08:58:49;;;;;;;10.07;7.30;;;22.90;36.80;;;;;;7379369;19;20376;-48
2022/04/29 09:01:22;;;;;;;6.57;5.90;;;23.20;36.60;;;;;;7375513;19;20384;-48
2022/04/29 09:03:54;;;;;;;8.20;6.97;;;23.50;35.80;;;;;;7381229;19;20371;-48
2022/04/29 09:06:24;;;;;;;9.00;6.50;;;23.50;35.10;;;;;;7380954;19;20419;-48
2022/04/29 09:09:08;;;;;;;6.93;6.23;;;23.90;36.00;;;;;;7380375;19;20411;-48
2022/04/29 09:11:38;;;;;;;7.20;6.50;;;24.00;34.80;;;;;;7377577;19;20772;-48
2022/04/29 09:14:26;;;;;;;8.00;6.07;;;24.50;34.40;;;;;;7378895;19;20407;-46
2022/04/29 09:16:58;;;;;;;7.57;5.87;;;25.20;32.70;;;;;;7375917;19;20411;-48
2022/04/29 09:19:34;;;;;;;10.10;6.50;;;25.20;30.80;;;;;;7370918;19;20439;-47
2022/04/29 09:22:08;;;;;;;6.00;5.40;;;25.40;30.80;;;;;;7380058;19;20375;-48
2022/04/29 09:25:04;;;;;;;6.00;5.40;;;25.70;31.40;;;;;;7374002;19;20776;-46
2022/04/29 09:27:58;;;;;;;8.43;5.27;;;26.40;30.80;;;;;;7378526;19;20397;-48
2022/04/29 09:30:50;;;;;;;6.50;4.67;;;26.50;27.60;;;;;;7376637;19;20492;-46
2022/04/29 09:33:40;;;;;;;8.50;6.03;;;26.60;28.50;;;;;;7376933;19;20427;-47
2022/04/29 09:36:28;;;;;;;7.30;5.70;;;27.20;28.70;;;;;;7377978;19;20368;-46
2022/04/29 09:42:00;;;;;;;5.97;5.47;;;27.90;28.50;;;;;;7376670;19;20368;-47
2022/04/29 09:44:33;;;;;;;6.80;6.20;;;28.70;26.90;;;;;;7376655;19;20419;-49
2022/04/29 09:47:15;;;;;;;5.80;5.30;;;28.90;26.80;;;;;;7379465;19;20415;-49
2022/04/29 09:49:58;;;;;;;6.30;5.63;;;29.40;26.50;;;;;;7378002;19;20385;-48
2022/04/29 09:52:31;;;;;;;6.90;5.00;;;29.80;26.00;;;;;;7378311;19;20380;-48
2022/04/29 09:55:12;;;;;;;8.10;5.80;;;29.40;25.20;;;;;;7376463;19;20906;-47
2022/04/29 09:57:49;;;;;;;5.43;4.93;;;29.10;25.20;;;;;;7375608;19;20376;-49
2022/04/29 10:00:22;;;;;;;5.50;5.00;;;28.90;25.20;;;;;;7376133;19;20910;-47
2022/04/29 10:03:03;;;;;;;6.17;4.97;;;28.70;25.30;;;;;;7378148;19;20399;-49
2022/04/29 10:05:36;;;;;;;5.00;4.27;;;28.00;25.60;;;;;;7375586;19;20424;-47
2022/04/29 10:08:10;;;;;;;6.30;5.43;;;27.60;26.80;;;;;;7374926;19;20812;-47
2022/04/29 10:10:40;;;;;;;6.60;5.10;;;27.40;26.40;;;;;;7377402;19;20447;-45
2022/04/29 10:13:11;;;;;;;5.50;4.50;;;26.70;25.90;;;;;;7376849;19;21066;-48
2022/04/29 10:15:47;;;;;;;4.67;4.20;;;26.20;26.90;;;;;;7377694;19;20717;-48
2022/04/29 10:21:46;;;;;;;3.83;3.33;;;25.30;27.00;;;;;;7376101;19;20364;-48
2022/04/29 10:24:18;;;;;;;3.03;2.80;;;24.50;26.50;;;;;;7376925;19;20379;-48
2022/04/29 10:26:50;;;;;;;4.00;3.00;;;25.10;26.20;;;;;;7377937;19;20959;-46
2022/04/29 10:29:20;;;;;;;3.53;3.07;;;26.10;25.20;;;;;;7378772;19;20380;-45
2022/04/29 10:32:07;;;;;;;4.27;3.33;;;26.70;24.20;;;;;;7373464;19;20368;-48
2022/04/29 10:34:42;;;;;;;33.70;8.33;;;26.90;23.60;;;;;;7378477;19;20417;-48
2022/04/29 10:37:17;;;;;;;3.60;3.03;;;26.50;24.70;;;;;;7375215;19;20893;-48
2022/04/29 10:40:10;;;;;;;3.23;2.93;;;26.50;24.00;;;;;;7374522;19;20376;-47
2022/04/29 10:43:09;;;;;;;3.97;3.27;;;27.00;24.40;;;;;;7378964;19;20412;-45
2022/04/29 10:46:19;;;;;;;3.60;3.03;;;27.70;22.80;;;;;;7375123;19;20380;-47
2022/04/29 10:49:25;;;;;;;3.50;3.20;;;27.80;22.80;;;;;;7374815;19;20487;-47
2022/04/29 10:52:31;;;;;;;4.13;3.33;;;28.90;21.90;;;;;;7377608;19;20443;-48
2022/04/29 10:55:25;;;;;;;3.43;2.70;;;29.40;21.40;;;;;;7375700;19;20372;-48
2022/04/29 10:58:03;;;;;;;2.93;2.63;;;30.40;21.20;;;;;;7375019;19;20387;-48
2022/04/29 11:00:33;;;;;;;2.70;2.50;;;31.60;20.80;;;;;;7373984;19;20417;-48
2022/04/29 11:03:34;;;;;;;3.10;2.80;;;32.00;19.70;;;;;;7375787;19;20380;-48
2022/04/29 11:06:13;;;;;;;3.87;3.10;;;31.60;20.20;;;;;;7375344;19;20930;-48
2022/04/29 11:08:46;;;;;;;3.70;3.10;;;31.40;19.90;;;;;;7375578;19;20379;-48
2022/04/29 11:11:18;;;;;;;3.83;3.10;;;31.30;20.40;;;;;;7373732;19;20780;-47
2022/04/29 11:14:06;;;;;;;3.53;3.00;;;31.40;20.30;;;;;;7375935;19;20391;-48
2022/04/29 11:16:56;;;;;;;3.50;3.20;;;31.20;19.80;;;;;;7372553;19;20392;-47
2022/04/29 11:19:48;;;;;;;3.20;2.90;;;31.10;19.80;;;;;;7374011;19;21064;-49
2022/04/29 11:25:11;;;;;;;3.80;3.50;;;31.10;19.70;;;;;;7374392;19;20383;-47
2022/04/29 11:27:43;;;;;;;7.30;6.60;;;30.40;20.80;;;;;;7372715;19;20375;-47
2022/04/29 11:30:36;;;;;;;5.47;3.37;;;30.40;21.10;;;;;;7373942;19;20492;-48
2022/04/29 11:33:11;;;;;;;4.27;3.87;;;29.70;20.80;;;;;;7374985;19;20932;-45
2022/04/29 11:35:40;;;;;;;4.17;3.20;;;29.00;21.60;;;;;;7376903;19;20562;-46
2022/04/29 11:38:12;;;;;;;4.37;3.70;;;28.00;22.30;;;;;;7375638;19;20388;-47
2022/04/29 11:40:46;;;;;;;8.83;4.07;;;27.50;23.00;;;;;;7372566;19;20388;-46
2022/04/29 11:43:24;;;;;;;3.23;2.93;;;27.10;22.90;;;;;;7373571;19;20951;-48
2022/04/29 11:46:05;;;;;;;3.87;3.30;;;26.50;23.30;;;;;;7370141;19;20380;-48
2022/04/29 11:48:36;;;;;;;4.60;3.40;;;26.10;23.70;;;;;;7377994;19;20380;-48
2022/04/29 11:51:07;;;;;;;5.17;3.50;;;26.20;23.90;;;;;;7381946;19;20475;-48
2022/04/29 11:53:55;;;;;;;4.00;3.60;;;26.30;23.80;;;;;;7379391;19;20909;-46
2022/04/29 11:56:36;;;;;;;4.20;3.60;;;26.50;24.00;;;;;;7382815;19;20919;-48
2022/04/29 11:59:07;;;;;;;3.77;3.10;;;25.70;24.10;;;;;;7382130;19;20496;-48
2022/04/29 12:01:37;;;;;;;3.83;3.27;;;25.70;24.70;;;;;;7380419;19;20459;-47
2022/04/29 12:04:08;;;;;;;3.10;2.80;;;25.90;24.00;;;;;;7383609;19;20387;-48
2022/04/29 12:06:58;;;;;;;3.30;3.00;;;25.40;24.60;;;;;;7378432;19;20384;-47
2022/04/29 12:09:34;;;;;;;4.43;3.97;;;25.20;24.80;;;;;;7380807;19;20417;-47
2022/04/29 12:12:25;;;;;;;4.07;3.20;;;24.50;24.90;;;;;;7378882;19;20391;-47
2022/04/29 12:14:55;;;;;;;3.97;3.53;;;24.20;25.80;;;;;;7379350;19;20403;-47
2022/04/29 12:17:35;;;;;;;3.63;3.20;;;24.30;26.20;;;;;;7379695;19;20415;-47
2022/04/29 12:20:09;;;;;;;4.80;3.50;;;24.30;25.50;;;;;;7379154;19;20897;-47
2022/04/29 12:22:41;;;;;;;3.80;3.30;;;24.20;25.90;;;;;;7379068;19;20392;-47
2022/04/29 12:25:28;;;;;;;3.53;3.23;;;24.40;26.00;;;;;;7379814;19;20412;-47
2022/04/29 12:28:21;;;;;;;4.10;3.70;;;24.20;25.40;;;;;;7382357;19;20387;-47
2022/04/29 12:36:52;;;;;;;6.47;3.23;;;24.10;25.10;;;;;;7378146;19;21121;-49
2022/04/29 12:39:27;;;;;;;3.50;3.20;;;24.20;25.60;;;;;;7380664;19;20880;-47
2022/04/29 12:42:06;;;;;;;3.10;2.80;;;25.30;25.10;;;;;;7377910;19;20372;-49
2022/04/29 12:45:07;;;;;;;4.40;4.00;;;26.60;24.20;;;;;;7380052;19;20967;-49
2022/04/29 12:48:04;;;;;;;5.63;3.37;;;27.90;22.40;;;;;;7379208;19;20800;-48
2022/04/29 12:50:40;;;;;;;3.53;3.23;;;29.10;21.90;;;;;;7379560;19;20375;-49
2022/04/29 12:53:16;;;;;;;4.33;3.93;;;30.50;21.00;;;;;;7377695;19;20404;-47
2022/04/29 12:55:53;;;;;;;3.93;3.40;;;30.50;19.90;;;;;;7382220;19;20384;-48
2022/04/29 12:58:30;;;;;;;3.83;3.47;;;29.90;20.50;;;;;;7377760;19;20930;-48
2022/04/29 13:01:07;;;;;;;4.97;3.90;;;30.00;20.60;;;;;;7378214;19;20377;-41
2022/04/29 13:03:40;;;;;;;4.70;4.23;;;29.80;20.60;;;;;;7377267;19;20754;-40
2022/04/29 13:06:22;;;;;;;3.43;3.13;;;29.70;20.60;;;;;;7377442;19;20383;-41
2022/04/29 13:08:57;;;;;;;4.80;3.57;;;29.50;21.10;;;;;;7380824;19;20384;-41
2022/04/29 13:11:32;;;;;;;3.10;2.90;;;29.70;20.80;;;;;;7380101;19;20372;-38
2022/04/29 13:14:05;;;;;;;4.53;3.57;;;29.10;21.10;;;;;;7378036;19;20386;-41
2022/04/29 13:16:39;;;;;;;4.27;3.87;;;29.50;21.00;;;;;;7375155;19;20387;-39
2022/04/29 13:19:09;;;;;;;5.07;4.10;;;29.60;21.10;;;;;;7354758;19;20518;-39
2022/04/29 13:21:38;;;;;;;8.10;4.67;;;29.60;21.00;;;;;;7378713;19;21325;-39
2022/04/29 13:24:10;;;;;;;4.80;4.10;;;28.70;21.50;;;;;;7375792;19;20452;-41
2022/04/29 13:26:47;;;;;;;4.40;3.80;;;27.70;22.30;;;;;;7373421;19;20388;-41
2022/04/29 13:29:19;;;;;;;3.63;3.33;;;25.80;24.00;;;;;;7378810;19;20389;-40
2022/04/29 13:31:53;;;;;;;4.23;3.80;;;25.40;24.30;;;;;;7376501;19;20754;-49
2022/04/29 13:34:22;;;;;;;4.57;3.70;;;25.30;24.70;;;;;;7379777;19;20380;-49
2022/04/29 13:36:52;;;;;;;6.47;4.50;;;25.30;24.60;;;;;;7379340;19;20431;-47
2022/04/29 13:39:24;;;;;;;6.10;4.40;;;25.20;24.80;;;;;;7378240;19;20412;-48
2022/04/29 13:42:18;;;;;;;4.83;4.07;;;24.60;25.40;;;;;;7375375;19;20416;-47
2022/04/29 13:44:48;;;;;;;5.80;3.27;;;24.20;26.00;;;;;;7380461;19;20938;-47
2022/04/29 13:47:22;;;;;;;5.07;4.37;;;24.30;25.80;;;;;;7373631;19;20384;-47
2022/04/29 13:49:52;;;;;;;3.83;3.40;;;24.10;25.60;;;;;;7379808;19;20743;-47
2022/04/29 13:55:04;;;;;;;4.57;3.87;;;23.60;26.20;;;;;;7379503;19;21137;-48
2022/04/29 13:57:35;;;;;;;4.97;3.50;;;23.50;26.50;;;;;;7379462;19;20416;-47
2022/04/29 14:00:09;;;;;;;4.20;3.80;;;23.50;26.60;;;;;;7373412;19;20894;-47
2022/04/29 14:02:45;;;;;;;3.70;3.17;;;23.50;26.60;;;;;;7377548;19;20482;-47
2022/04/29 14:05:15;;;;;;;5.90;3.77;;;23.50;27.00;;;;;;7379206;19;20400;-47
2022/04/29 14:07:49;;;;;;;5.10;4.10;;;23.60;26.90;;;;;;7379057;19;20447;-48